KAXV/AXV METAR and TAF weather

Enter ICAO airport designator
Station Type Date Time Source
KAXV METAR 2019/08/25 02:56 UTC NOAA

KAXV 250256Z AUTO 06004KT 7SM CLR 15/12 A3022 RMK AO2


Station Type Date Time Source
KAXV Decoded METAR 2019/08/25 02:56 UTC NOAA

Station name not available
Aug 24, 2019 - 10:56 PM EDT / 2019.08.25 0256 UTC
Wind: from the ENE (060 degrees) at 5 MPH (4 KT):0
Visibility: 7 mile(s):0
Sky conditions: clear
Temperature: 59 F (15 C)
Dew Point: 53 F (12 C)
Relative Humidity: 82%
Pressure (altimeter): 30.22 in. Hg (1023 hPa)
ob: KAXV 250256Z AUTO 06004KT 7SM CLR 15/12 A3022 RMK AO2
cycle: 3

Station Type Date Time Source
KAXV TAF UTC NOAA

Error!

Example: see airport list